Poplar Municipal Airport (PO1)
Poplar, MT
Field Elevation: 2036
Lat: 48°08.06N  Long: 105°09.72W
CTAF/Unicom Freq: 122.8000
   
    
Weather Advisories
2017-10-17   18:44 Z
Altimeter 29.74" Hg
Wind 230° @ 14 KT
Gusts 19 KT
Visibility 10 SM
Temperature 22° C (72° F)
Dewpoint -3° C (27° F)
Relative Humidity 18%
Density Altitude 3,500 feet
Condensation Altitude 14,800 feet
Wind and Runways
Indicated Runway = 20
Headwind = 12 kt
Crosswind = 7 kt
History
 
 
 
More Info
All DigiWx sites map
NOAA Forecast
 
Airport IQ 5010
(M46) Colstrip, MT
(6S5) Ravalli County
 
about DigiWx
 
FAA Disclaimer: The data displayed is for advisory purposes only and is not to be used for flight planning or operations. For official data, please call (not available) to hear the current automated AWOS voice message.
  METAR PO1 171844Z AUTO 23014G19KT 10 SM 22/M03 A2974